Allentown, New York
Current Conditions -  °F | °C
As of 10:56 AM on Sunday 25 Jan 2015 (Local Time) from KELZ Reporting Station
Clear Clear  
Wind Chill: 14°   Ceiling: Unl
Heat Index: 22°   Visibility: 10mi
Dew Point:   Wind: 6mph
Humidity: 53%   Direction: NA
Pressure: 29.77"   Gusts: NA
Location:  42.08°N, 78.06°W
Report Text: KELZ 251556Z AUTO VRB05KT 10SM CLR M06/M14 A2977 RMK AO2 SLP110 T10561139
Loading
Personal Weather Stations






























Interactive Weather Map New forecast layout! Learn more

10-Day Weather Forecast

Advertisements
Track Severe Weather on mobile